Time,TemperatureF,DewpointF,PressureIn,WindDirection,WindDirectionDegrees,WindSpeedMPH,WindSpeedGustMPH,Humidity,HourlyPrecipIn,Conditions,Clouds,dailyrainin,SoftwareType,DateUTC
2013-01-04 00:05:00,29.2,24.0,30.25,North,349,4.0,7.0,82,0.00,,,0.00,weatherlink.com 1.10,2013-01-04 05:05:00,
2013-01-04 00:20:00,28.9,24.0,30.25,WNW,299,0.0,7.0,82,0.00,,,0.00,weatherlink.com 1.10,2013-01-04 05:20:00,
2013-01-04 00:35:00,28.5,24.0,30.25,West,264,2.0,6.0,82,0.00,,,0.00,weatherlink.com 1.10,2013-01-04 05:35:00,
2013-01-04 00:50:00,28.4,24.0,30.25,WNW,298,3.0,8.0,84,0.00,,,0.00,weatherlink.com 1.10,2013-01-04 05:50:00,
2013-01-04 01:05:00,28.3,24.0,30.25,West,263,6.0,7.0,84,0.00,,,0.00,weatherlink.com 1.10,2013-01-04 06:05:00,
2013-01-04 01:20:00,28.3,24.0,30.25,WSW,245,0.0,3.0,85,0.00,,,0.00,weatherlink.com 1.10,2013-01-04 06:20:00,
2013-01-04 01:35:00,28.2,24.0,30.24,West,279,3.0,7.0,85,0.00,,,0.00,weatherlink.com 1.10,2013-01-04 06:35:00,
2013-01-04 01:50:00,28.3,24.0,30.23,WNW,295,1.0,7.0,83,0.00,,,0.00,weatherlink.com 1.10,2013-01-04 06:50:00,
2013-01-04 02:05:00,28.2,24.0,30.23,SSW,201,4.0,6.0,84,0.00,,,0.00,weatherlink.com 1.10,2013-01-04 07:05:00,
2013-01-04 02:20:00,28.1,23.0,30.23,NW,308,1.0,10.0,82,0.00,,,0.00,weatherlink.com 1.10,2013-01-04 07:20:00,
2013-01-04 02:35:00,27.9,24.0,30.23,WNW,297,3.0,11.0,84,0.00,,,0.00,weatherlink.com 1.10,2013-01-04 07:35:00,
2013-01-04 02:50:00,27.7,23.0,30.23,NNW,333,3.0,7.0,83,0.00,,,0.00,weatherlink.com 1.10,2013-01-04 07:50:00,
2013-01-04 03:05:00,27.5,23.0,30.23,NW,306,1.0,8.0,83,0.00,,,0.00,weatherlink.com 1.10,2013-01-04 08:05:00,
2013-01-04 03:21:00,27.3,23.0,30.23,West,271,1.0,8.0,83,0.00,,,0.00,weatherlink.com 1.10,2013-01-04 08:21:00,
2013-01-04 03:36:00,27.0,23.0,30.23,WNW,291,1.0,9.0,83,0.00,,,0.00,weatherlink.com 1.10,2013-01-04 08:36:00,
2013-01-04 03:51:00,26.7,22.0,30.23,WNW,298,4.0,8.0,82,0.00,,,0.00,weatherlink.com 1.10,2013-01-04 08:51:00,
2013-01-04 04:06:00,26.5,22.0,30.22,SW,235,5.0,8.0,83,0.00,,,0.00,weatherlink.com 1.10,2013-01-04 09:06:00,
2013-01-04 04:21:00,26.3,22.0,30.22,West,259,1.0,11.0,83,0.00,,,0.00,weatherlink.com 1.10,2013-01-04 09:21:00,
2013-01-04 04:36:00,26.2,22.0,30.22,West,275,3.0,4.0,84,0.00,,,0.00,weatherlink.com 1.10,2013-01-04 09:36:00,
2013-01-04 04:51:00,25.9,22.0,30.22,NE,39,8.0,8.0,84,0.00,,,0.00,weatherlink.com 1.10,2013-01-04 09:51:00,
2013-01-04 05:06:00,25.7,22.0,30.21,WSW,253,2.0,8.0,85,0.00,,,0.00,weatherlink.com 1.10,2013-01-04 10:06:00,
2013-01-04 05:21:00,25.4,22.0,30.21,WSW,256,3.0,10.0,85,0.00,,,0.00,weatherlink.com 1.10,2013-01-04 10:21:00,
2013-01-04 05:36:00,25.2,22.0,30.21,SW,235,2.0,6.0,86,0.00,,,0.00,weatherlink.com 1.10,2013-01-04 10:36:00,
2013-01-04 05:51:00,25.0,21.0,30.20,WSW,248,3.0,5.0,86,0.00,,,0.00,weatherlink.com 1.10,2013-01-04 10:51:00,
2013-01-04 06:06:00,24.4,21.0,30.20,SW,229,3.0,7.0,86,0.00,,,0.00,weatherlink.com 1.10,2013-01-04 11:06:00,
2013-01-04 06:21:00,23.5,20.0,30.20,West,278,0.0,5.0,87,0.00,,,0.00,weatherlink.com 1.10,2013-01-04 11:21:00,
2013-01-04 06:36:00,22.7,19.0,30.20,WSW,241,0.0,7.0,87,0.00,,,0.00,weatherlink.com 1.10,2013-01-04 11:36:00,
2013-01-04 06:51:00,22.0,19.0,30.20,WSW,243,3.0,7.0,88,0.00,,,0.00,weatherlink.com 1.10,2013-01-04 11:51:00,
2013-01-04 07:06:00,21.6,18.0,30.20,SW,229,3.0,8.0,87,0.00,,,0.00,weatherlink.com 1.10,2013-01-04 12:06:00,
2013-01-04 07:21:00,21.1,18.0,30.21,West,274,0.0,10.0,87,0.00,,,0.00,weatherlink.com 1.10,2013-01-04 12:21:00,
2013-01-04 07:36:00,20.8,18.0,30.21,WNW,291,1.0,11.0,88,0.00,,,0.00,weatherlink.com 1.10,2013-01-04 12:36:00,
2013-01-04 07:51:00,20.6,17.0,30.21,West,260,2.0,8.0,87,0.00,,,0.00,weatherlink.com 1.10,2013-01-04 12:51:00,
2013-01-04 08:06:00,20.1,17.0,30.21,WSW,250,2.0,5.0,88,0.00,,,0.00,weatherlink.com 1.10,2013-01-04 13:06:00,
2013-01-04 08:21:00,20.2,17.0,30.21,WSW,241,2.0,10.0,87,0.00,,,0.00,weatherlink.com 1.10,2013-01-04 13:21:00,
2013-01-04 08:36:00,20.3,17.0,30.21,West,268,0.0,5.0,87,0.00,,,0.00,weatherlink.com 1.10,2013-01-04 13:36:00,
2013-01-04 08:51:00,20.7,17.0,30.22,West,266,2.0,10.0,87,0.00,,,0.00,weatherlink.com 1.10,2013-01-04 13:51:00,
2013-01-04 09:06:00,21.0,18.0,30.23,WNW,285,2.0,6.0,87,0.00,,,0.00,weatherlink.com 1.10,2013-01-04 14:06:00,
2013-01-04 09:21:00,21.2,18.0,30.23,WSW,249,1.0,5.0,87,0.00,,,0.00,weatherlink.com 1.10,2013-01-04 14:21:00,
2013-01-04 09:36:00,21.4,18.0,30.23,NW,311,2.0,6.0,87,0.00,,,0.00,weatherlink.com 1.10,2013-01-04 14:36:00,
2013-01-04 09:52:00,21.4,18.0,30.23,WNW,285,2.0,5.0,86,0.00,,,0.00,weatherlink.com 1.10,2013-01-04 14:52:00,
2013-01-04 10:07:00,21.6,18.0,30.23,WSW,248,0.0,4.0,86,0.00,,,0.00,weatherlink.com 1.10,2013-01-04 15:07:00,
2013-01-04 10:22:00,21.9,18.0,30.23,NE,43,1.0,9.0,86,0.00,,,0.00,weatherlink.com 1.10,2013-01-04 15:22:00,
2013-01-04 10:37:00,22.4,19.0,30.23,South,187,4.0,8.0,85,0.00,,,0.00,weatherlink.com 1.10,2013-01-04 15:37:00,
2013-01-04 10:52:00,23.1,19.0,30.23,SW,229,3.0,6.0,84,0.00,,,0.00,weatherlink.com 1.10,2013-01-04 15:52:00,
2013-01-04 11:07:00,23.5,19.0,30.22,WNW,283,0.0,14.0,83,0.00,,,0.00,weatherlink.com 1.10,2013-01-04 16:07:00,
2013-01-04 11:22:00,24.0,20.0,30.22,WNW,294,5.0,10.0,83,0.00,,,0.00,weatherlink.com 1.10,2013-01-04 16:22:00,
2013-01-04 11:37:00,24.3,20.0,30.21,North,354,1.0,9.0,83,0.00,,,0.00,weatherlink.com 1.10,2013-01-04 16:37:00,
2013-01-04 11:52:00,24.7,20.0,30.21,West,281,5.0,10.0,83,0.00,,,0.00,weatherlink.com 1.10,2013-01-04 16:52:00,
2013-01-04 12:07:00,24.7,20.0,30.20,WNW,284,7.0,12.0,82,0.00,,,0.00,weatherlink.com 1.10,2013-01-04 17:07:00,
2013-01-04 12:22:00,25.1,20.0,30.20,SW,214,8.0,13.0,82,0.00,,,0.00,weatherlink.com 1.10,2013-01-04 17:22:00,
2013-01-04 12:37:00,25.4,20.0,30.19,SSW,203,2.0,10.0,81,0.00,,,0.00,weatherlink.com 1.10,2013-01-04 17:37:00,
2013-01-04 12:52:00,26.1,21.0,30.19,WNW,287,2.0,13.0,80,0.00,,,0.00,weatherlink.com 1.10,2013-01-04 17:52:00,
2013-01-04 13:07:00,27.6,22.0,30.18,SSW,207,4.0,12.0,78,0.00,,,0.00,weatherlink.com 1.10,2013-01-04 18:07:00,
2013-01-04 13:22:00,28.6,21.0,30.17,West,260,3.0,9.0,74,0.00,,,0.00,weatherlink.com 1.10,2013-01-04 18:22:00,
2013-01-04 13:37:00,29.5,22.0,30.17,North,360,1.0,8.0,73,0.00,,,0.00,weatherlink.com 1.10,2013-01-04 18:37:00,
2013-01-04 13:53:00,30.3,22.0,30.17,WSW,253,4.0,9.0,70,0.00,,,0.00,weatherlink.com 1.10,2013-01-04 18:53:00,
2013-01-04 14:07:00,31.0,22.0,30.16,ESE,112,4.0,6.0,68,0.00,,,0.00,weatherlink.com 1.10,2013-01-04 19:07:00,
2013-01-04 14:22:00,31.0,21.0,30.16,NW,304,2.0,9.0,67,0.00,,,0.00,weatherlink.com 1.10,2013-01-04 19:22:00,
2013-01-04 14:37:00,31.8,22.0,30.16,SSE,159,3.0,8.0,66,0.00,,,0.00,weatherlink.com 1.10,2013-01-04 19:37:00,
2013-01-04 14:52:00,32.1,21.0,30.17,West,277,3.0,6.0,65,0.00,,,0.00,weatherlink.com 1.10,2013-01-04 19:52:00,
2013-01-04 15:07:00,32.1,21.0,30.16,WNW,282,2.0,9.0,64,0.00,,,0.00,weatherlink.com 1.10,2013-01-04 20:07:00,
2013-01-04 15:22:00,32.2,22.0,30.17,South,190,6.0,9.0,65,0.00,,,0.00,weatherlink.com 1.10,2013-01-04 20:22:00,
2013-01-04 15:37:00,32.2,22.0,30.17,West,259,7.0,7.0,65,0.00,,,0.00,weatherlink.com 1.10,2013-01-04 20:37:00,
2013-01-04 15:52:00,32.1,22.0,30.17,South,183,3.0,6.0,66,0.00,,,0.00,weatherlink.com 1.10,2013-01-04 20:52:00,
2013-01-04 16:07:00,31.4,22.0,30.18,West,260,1.0,7.0,67,0.00,,,0.00,weatherlink.com 1.10,2013-01-04 21:07:00,
2013-01-04 16:22:00,30.8,21.0,30.18,SW,225,4.0,10.0,68,0.00,,,0.00,weatherlink.com 1.10,2013-01-04 21:22:00,
2013-01-04 16:37:00,30.7,22.0,30.19,SW,215,1.0,5.0,70,0.00,,,0.00,weatherlink.com 1.10,2013-01-04 21:37:00,
2013-01-04 16:52:00,30.3,22.0,30.19,WSW,238,0.0,5.0,71,0.00,,,0.00,weatherlink.com 1.10,2013-01-04 21:52:00,
2013-01-04 17:08:00,29.5,22.0,30.19,West,265,2.0,5.0,72,0.00,,,0.00,weatherlink.com 1.10,2013-01-04 22:08:00,
2013-01-04 17:23:00,28.6,21.0,30.19,SW,225,0.0,4.0,73,0.00,,,0.00,weatherlink.com 1.10,2013-01-04 22:23:00,
2013-01-04 17:38:00,27.9,21.0,30.20,SSW,213,3.0,3.0,75,0.00,,,0.00,weatherlink.com 1.10,2013-01-04 22:38:00,
2013-01-04 17:53:00,27.6,21.0,30.20,South,180,2.0,4.0,76,0.00,,,0.00,weatherlink.com 1.10,2013-01-04 22:53:00,
2013-01-04 18:08:00,27.3,21.0,30.20,SW,236,3.0,5.0,77,0.00,,,0.00,weatherlink.com 1.10,2013-01-04 23:08:00,
2013-01-04 18:23:00,27.2,22.0,30.21,WSW,252,1.0,6.0,79,0.00,,,0.00,weatherlink.com 1.10,2013-01-04 23:23:00,
2013-01-04 18:38:00,27.2,22.0,30.21,WSW,254,2.0,5.0,80,0.00,,,0.00,weatherlink.com 1.10,2013-01-04 23:38:00,
2013-01-04 18:53:00,27.0,22.0,30.22,WSW,255,0.0,5.0,81,0.00,,,0.00,weatherlink.com 1.10,2013-01-04 23:53:00,
2013-01-04 19:08:00,27.0,22.0,30.23,WSW,255,1.0,4.0,81,0.00,,,0.00,weatherlink.com 1.10,2013-01-05 00:08:00,
2013-01-04 19:23:00,26.8,22.0,30.23,North,5,1.0,5.0,82,0.00,,,0.00,weatherlink.com 1.10,2013-01-05 00:23:00,
2013-01-04 19:38:00,26.6,22.0,30.23,North,4,2.0,6.0,83,0.00,,,0.00,weatherlink.com 1.10,2013-01-05 00:38:00,
2013-01-04 19:53:00,26.6,22.0,30.24,WSW,238,1.0,5.0,83,0.00,,,0.00,weatherlink.com 1.10,2013-01-05 00:53:00,
2013-01-04 20:08:00,26.5,22.0,30.24,WSW,257,1.0,5.0,84,0.00,,,0.00,weatherlink.com 1.10,2013-01-05 01:08:00,
2013-01-04 20:23:00,26.5,22.0,30.24,West,278,2.0,6.0,84,0.00,,,0.00,weatherlink.com 1.10,2013-01-05 01:23:00,
2013-01-04 20:38:00,26.5,23.0,30.24,SW,236,1.0,7.0,85,0.00,,,0.00,weatherlink.com 1.10,2013-01-05 01:38:00,
2013-01-04 20:53:00,26.3,22.0,30.24,NNW,348,0.0,5.0,85,0.00,,,0.00,weatherlink.com 1.10,2013-01-05 01:53:00,
2013-01-04 21:08:00,25.9,22.0,30.25,West,266,0.0,4.0,86,0.00,,,0.00,weatherlink.com 1.10,2013-01-05 02:08:00,
2013-01-04 21:23:00,26.0,22.0,30.25,WNW,291,0.0,5.0,86,0.00,,,0.00,weatherlink.com 1.10,2013-01-05 02:23:00,
2013-01-04 21:38:00,25.7,22.0,30.25,WSW,242,0.0,5.0,87,0.00,,,0.00,weatherlink.com 1.10,2013-01-05 02:38:00,
2013-01-04 21:53:00,25.4,22.0,30.25,NW,317,1.0,5.0,87,0.00,,,0.00,weatherlink.com 1.10,2013-01-05 02:53:00,
2013-01-04 22:08:00,25.4,22.0,30.26,WSW,253,0.0,2.0,88,0.00,,,0.00,weatherlink.com 1.10,2013-01-05 03:08:00,
2013-01-04 22:23:00,25.6,22.0,30.26,South,172,0.0,4.0,87,0.00,,,0.00,weatherlink.com 1.10,2013-01-05 03:23:00,
2013-01-04 22:38:00,25.3,22.0,30.26,SW,215,0.0,2.0,88,0.00,,,0.00,weatherlink.com 1.10,2013-01-05 03:38:00,
2013-01-04 22:53:00,25.0,22.0,30.26,South,186,2.0,3.0,89,0.00,,,0.00,weatherlink.com 1.10,2013-01-05 03:53:00,
2013-01-04 23:08:00,24.8,22.0,30.26,WSW,257,1.0,2.0,88,0.00,,,0.00,weatherlink.com 1.10,2013-01-05 04:08:00,
2013-01-04 23:23:00,24.3,22.0,30.27,WSW,248,1.0,1.0,89,0.00,,,0.00,weatherlink.com 1.10,2013-01-05 04:23:00,
2013-01-04 23:38:00,23.8,21.0,30.27,West,280,0.0,2.0,90,0.00,,,0.00,weatherlink.com 1.10,2013-01-05 04:38:00,
2013-01-04 23:53:00,23.6,21.0,30.27,South,181,0.0,2.0,90,0.00,,,0.00,weatherlink.com 1.10,2013-01-05 04:53:00,